createdAt,value
2017-10-24T06:18:30.042Z,67.45
2017-10-24T06:20:57.801Z,70.22
2017-10-24T06:23:25.548Z,66.32
2017-10-24T06:25:54.120Z,76.87
2017-10-24T06:28:22.638Z,57.88
2017-10-24T06:30:50.399Z,57.33
2017-10-24T06:33:18.212Z,56.05
2017-10-24T06:35:46.022Z,55.55
2017-10-24T06:38:13.772Z,48.80
2017-10-24T06:40:41.589Z,96.05
2017-10-24T06:43:09.341Z,46.10
2017-10-24T06:45:37.187Z,62.47
2017-10-24T06:48:04.994Z,53.97
2017-10-24T06:50:32.744Z,48.75
2017-10-24T06:53:00.510Z,57.30
2017-10-24T06:55:28.323Z,55.80
2017-10-24T06:57:56.078Z,47.00
2017-10-24T07:00:23.832Z,58.70
2017-10-24T07:02:51.647Z,52.50
2017-10-24T07:05:19.396Z,67.68
2017-10-24T07:07:47.156Z,66.57
2017-10-24T07:10:14.973Z,106.03
2017-10-24T07:12:42.728Z,55.65
2017-10-24T07:15:11.249Z,51.83
2017-10-24T07:17:39.066Z,107.85
2017-10-24T07:20:07.594Z,101.40
2017-10-24T07:22:35.349Z,49.72
2017-10-24T07:25:03.201Z,65.50
2017-10-24T07:27:30.964Z,45.28
2017-10-24T07:29:58.727Z,39.47
2017-10-24T07:32:26.547Z,48.33
2017-10-24T07:34:55.076Z,101.22
2017-10-24T07:37:22.841Z,103.00
2017-10-24T07:39:50.699Z,56.17
2017-10-24T07:42:18.451Z,42.65
2017-10-24T07:44:46.204Z,52.22
2017-10-24T07:47:14.017Z,39.97
2017-10-24T07:49:41.771Z,51.95
2017-10-24T07:52:09.524Z,43.08
2017-10-24T07:54:37.347Z,40.28
2017-10-24T07:57:05.099Z,39.28
2017-10-24T07:59:33.620Z,34.92
2017-10-24T08:02:01.435Z,37.90
2017-10-24T08:04:29.951Z,39.42
2017-10-24T08:06:57.701Z,39.00
2017-10-24T08:09:25.514Z,34.35
2017-10-24T08:11:53.267Z,37.58
2017-10-24T08:14:21.020Z,34.92
2017-10-24T08:16:48.831Z,35.40
2017-10-24T08:19:17.356Z,35.35
2017-10-24T08:21:45.118Z,31.30
2017-10-24T08:24:12.934Z,34.55
2017-10-24T08:26:41.478Z,33.38
2017-10-24T08:29:09.234Z,29.20
2017-10-24T08:31:37.047Z,30.30
2017-10-24T08:34:04.801Z,30.92
2017-10-24T08:36:33.322Z,30.75
2017-10-24T08:39:01.135Z,28.70
2017-10-24T08:41:29.659Z,32.85
2017-10-24T08:43:57.416Z,29.05
2017-10-24T08:46:25.230Z,30.75
2017-10-24T08:48:52.983Z,29.25
2017-10-24T08:51:20.780Z,31.52
2017-10-24T08:53:48.616Z,34.08
2017-10-24T08:56:17.135Z,37.30
2017-10-24T08:58:44.891Z,31.58
2017-10-24T09:01:28.515Z,31.33
2017-10-24T09:03:56.331Z,32.80
2017-10-24T09:06:35.095Z,32.97
2017-10-24T09:09:14.758Z,29.25
2017-10-24T09:11:52.487Z,32.90
2017-10-24T09:14:20.238Z,35.35
2017-10-24T09:16:52.750Z,34.17
2017-10-24T09:33:04.482Z,29.98
2017-10-24T09:35:32.253Z,32.08
2017-10-24T09:38:00.021Z,35.58
2017-10-24T09:40:27.847Z,29.75
2017-10-24T09:42:55.613Z,36.30
2017-10-24T09:45:23.367Z,34.70
2017-10-24T09:47:51.179Z,36.08
2017-10-24T09:50:18.937Z,28.58
2017-10-24T09:52:46.688Z,30.75
2017-10-24T09:55:14.502Z,29.37
2017-10-24T09:57:42.258Z,28.65
2017-10-24T10:00:09.779Z,25.25
2017-10-24T10:02:37.595Z,29.15
2017-10-24T10:05:05.347Z,24.90
2017-10-24T10:07:33.102Z,28.58
2017-10-24T10:10:00.924Z,23.33
2017-10-24T10:12:28.674Z,29.35
2017-10-24T10:14:56.434Z,28.23
2017-10-24T10:17:24.243Z,24.92
2017-10-24T10:19:52.003Z,26.73
2017-10-24T10:22:19.766Z,25.37
2017-10-24T10:24:47.575Z,26.25
2017-10-24T10:27:15.326Z,30.00
2017-10-24T10:29:43.091Z,26.33
2017-10-24T10:32:10.906Z,31.45
2017-10-24T10:34:39.447Z,30.08
2017-10-24T10:37:07.207Z,34.90
2017-10-24T10:39:35.033Z,27.77
2017-10-24T10:42:02.781Z,36.85
2017-10-24T10:44:30.535Z,28.25
2017-10-24T10:46:58.414Z,24.00
2017-10-24T10:49:26.169Z,28.58
2017-10-24T10:51:53.945Z,23.75
2017-10-24T10:54:21.762Z,27.23
2017-10-24T10:56:49.510Z,29.50
2017-10-24T10:59:17.270Z,23.90
2017-10-24T11:01:45.083Z,28.80
2017-10-24T11:04:12.833Z,26.75
2017-10-24T11:06:40.594Z,23.83
2017-10-24T11:09:08.419Z,27.23
2017-10-24T11:11:36.171Z,21.90
2017-10-24T11:14:03.929Z,28.83
2017-10-24T11:16:31.906Z,21.17
2017-10-24T11:18:59.664Z,25.62
2017-10-24T11:21:27.437Z,23.05
2017-10-24T11:23:55.250Z,20.05
2017-10-24T11:26:23.010Z,26.02
2017-10-24T11:28:50.763Z,23.65
2017-10-24T11:31:18.583Z,20.85
2017-10-24T11:33:46.335Z,17.25
2017-10-24T11:36:14.083Z,19.80
2017-10-24T11:38:41.902Z,23.12
2017-10-24T11:41:09.662Z,20.77
2017-10-24T11:43:37.427Z,24.02
2017-10-24T11:46:05.998Z,19.40
2017-10-24T11:48:34.523Z,17.23
2017-10-24T11:51:02.382Z,18.37
2017-10-24T11:53:30.192Z,19.42
2017-10-24T11:55:57.961Z,19.25
2017-10-24T11:58:26.483Z,15.55
2017-10-24T12:00:54.294Z,20.42
2017-10-24T12:03:22.048Z,16.70
2017-10-24T12:05:49.811Z,17.85
2017-10-24T12:08:17.638Z,13.73
2017-10-24T12:10:45.403Z,16.73
2017-10-24T12:13:13.158Z,14.30
2017-10-24T12:15:41.147Z,21.30
2017-10-24T12:18:08.904Z,21.37
2017-10-24T12:20:36.658Z,23.83
2017-10-24T12:23:04.475Z,15.77
2017-10-24T12:25:32.987Z,17.37
2017-10-24T12:28:00.739Z,18.08
2017-10-24T12:30:28.555Z,13.93
2017-10-24T12:32:56.315Z,19.52
2017-10-24T12:35:24.068Z,14.38
2017-10-24T12:37:51.888Z,18.95
2017-10-24T12:40:19.675Z,15.25
2017-10-24T12:42:48.471Z,15.85
2017-10-24T12:45:30.087Z,21.02
2017-10-24T12:47:58.619Z,18.12
2017-10-24T12:50:26.385Z,16.45
2017-10-24T12:52:54.208Z,17.50
2017-10-24T12:55:21.983Z,18.08
2017-10-24T12:57:49.760Z,20.85
2017-10-24T13:00:17.571Z,15.68
2017-10-24T13:02:45.323Z,13.85
2017-10-24T13:05:16.755Z,14.77
2017-10-24T13:07:44.574Z,15.38
2017-10-24T13:10:12.328Z,16.30
2017-10-24T13:12:40.085Z,16.35
2017-10-24T13:15:08.667Z,16.17
2017-10-24T13:17:37.197Z,20.92
2017-10-24T13:20:04.975Z,20.33
2017-10-24T13:22:32.820Z,22.05
2017-10-24T13:25:00.575Z,22.37
2017-10-24T13:27:28.329Z,23.85
2017-10-24T13:29:56.147Z,25.90
2017-10-24T13:32:24.671Z,22.87
2017-10-24T13:34:52.432Z,20.48
2017-10-24T13:37:20.239Z,21.25
2017-10-24T13:39:47.999Z,22.40
2017-10-24T13:42:15.751Z,23.80
2017-10-24T13:44:43.571Z,22.77
2017-10-24T13:47:11.326Z,30.65
2017-10-24T13:49:39.073Z,21.02
2017-10-24T13:52:06.889Z,25.15
2017-10-24T13:54:34.645Z,25.17
2017-10-24T13:57:02.398Z,30.25
2017-10-24T13:59:30.206Z,23.55
2017-10-24T14:01:58.733Z,22.25
2017-10-24T14:04:32.151Z,27.27
2017-10-24T14:20:26.002Z,24.70
2017-10-24T14:22:53.758Z,30.65
2017-10-24T14:25:21.524Z,24.55
2017-10-24T14:27:49.345Z,23.83
2017-10-24T14:30:17.102Z,23.08
2017-10-24T14:32:44.851Z,28.52
2017-10-24T14:35:13.691Z,27.60
2017-10-24T14:37:41.450Z,27.02
2017-10-24T14:40:09.200Z,27.00
2017-10-24T14:42:37.782Z,26.05
2017-10-24T14:45:05.535Z,30.35
2017-10-24T14:47:33.316Z,26.17
2017-10-24T14:50:01.129Z,25.17
2017-10-24T14:52:28.899Z,26.25
2017-10-24T14:54:56.658Z,21.40
2017-10-24T14:57:24.472Z,26.77
2017-10-24T14:59:52.231Z,25.48
2017-10-24T15:02:19.991Z,29.35
2017-10-24T15:04:47.822Z,23.42
2017-10-24T15:07:15.581Z,24.92
2017-10-24T15:09:43.338Z,21.02
2017-10-24T15:12:11.151Z,23.95
2017-10-24T15:14:38.910Z,20.30
2017-10-24T15:17:06.671Z,26.60
2017-10-24T15:19:34.481Z,24.35
2017-10-24T15:22:02.276Z,26.23
2017-10-24T15:24:30.231Z,22.70
2017-10-24T15:26:58.067Z,25.42
2017-10-24T15:29:25.822Z,22.70
2017-10-24T15:31:53.595Z,25.48
2017-10-24T15:34:21.412Z,27.08
2017-10-24T15:36:49.168Z,28.00
2017-10-24T15:39:16.924Z,26.23
2017-10-24T15:41:44.742Z,26.15
2017-10-24T15:44:12.499Z,25.83
2017-10-24T15:46:40.255Z,28.73
2017-10-24T15:49:09.408Z,25.75
2017-10-24T15:51:37.310Z,27.40
2017-10-24T15:54:05.833Z,29.17
2017-10-24T15:56:33.655Z,25.25
2017-10-24T15:59:02.179Z,28.60
2017-10-24T16:01:29.940Z,24.45
2017-10-24T16:03:57.749Z,27.87
2017-10-24T16:06:26.274Z,27.52
2017-10-24T16:08:54.031Z,33.53
2017-10-24T16:11:23.094Z,33.67
2017-10-24T16:13:51.628Z,32.72
2017-10-24T16:16:19.382Z,34.40
2017-10-24T16:18:47.193Z,35.30
2017-10-24T16:21:15.722Z,37.63
2017-10-24T16:23:43.491Z,32.28
2017-10-24T16:26:11.311Z,31.75
2017-10-24T16:28:39.075Z,33.47
2017-10-24T16:31:06.897Z,39.28
2017-10-24T16:33:34.766Z,33.22
2017-10-24T16:36:02.545Z,39.40
2017-10-24T16:38:30.311Z,44.25
2017-10-24T16:40:58.895Z,39.20
2017-10-24T16:43:26.650Z,45.03
2017-10-24T16:45:55.174Z,36.30
2017-10-24T16:48:22.991Z,43.55
2017-10-24T16:50:51.521Z,44.72
2017-10-24T16:53:19.284Z,38.95
2017-10-24T16:55:47.134Z,46.58
2017-10-24T16:58:14.927Z,46.72
2017-10-24T17:00:42.683Z,42.33
2017-10-24T17:03:10.497Z,41.63
2017-10-24T17:05:38.259Z,45.12
2017-10-24T17:08:06.031Z,46.45
2017-10-24T17:10:33.863Z,49.42
2017-10-24T17:13:02.387Z,48.35
2017-10-24T17:15:30.151Z,46.90
2017-10-24T17:17:57.964Z,45.78
2017-10-24T17:20:26.496Z,42.95
2017-10-24T17:22:54.250Z,55.12
2017-10-24T17:25:22.059Z,52.20
2017-10-24T17:27:49.835Z,47.67
2017-10-24T17:30:18.366Z,51.65
2017-10-24T17:32:46.183Z,56.17
2017-10-24T17:35:14.723Z,47.17
2017-10-24T17:37:42.504Z,44.80
2017-10-24T17:40:11.107Z,50.78
2017-10-24T17:42:39.650Z,43.95
2017-10-24T17:45:07.676Z,50.35
2017-10-24T17:47:35.505Z,41.65
2017-10-24T17:50:04.060Z,51.05
2017-10-24T17:52:31.816Z,43.47
2017-10-24T17:54:59.635Z,46.72
2017-10-24T17:57:28.016Z,44.50
2017-10-24T17:59:55.800Z,49.13
2017-10-24T18:02:23.615Z,48.33
2017-10-24T18:04:52.212Z,49.70
2017-10-24T18:07:20.747Z,63.35
2017-10-24T18:09:48.578Z,47.28
2017-10-24T18:12:16.328Z,52.28
2017-10-24T18:14:44.083Z,51.22
2017-10-24T18:17:11.904Z,54.10
2017-10-24T18:19:39.661Z,49.72
2017-10-24T18:22:07.432Z,49.13
2017-10-24T18:24:35.251Z,46.45
2017-10-24T18:27:03.033Z,55.88
2017-10-24T18:29:30.822Z,51.00
2017-10-24T18:31:58.649Z,49.40
2017-10-24T18:34:26.425Z,49.42
2017-10-24T18:36:54.191Z,43.35
2017-10-24T18:39:22.003Z,43.08
2017-10-24T18:41:49.756Z,49.55
2017-10-24T18:44:18.297Z,49.20
2017-10-24T18:46:46.131Z,49.80
2017-10-24T18:49:13.896Z,46.03
2017-10-24T18:51:41.703Z,42.40
2017-10-24T18:54:09.524Z,40.47
2017-10-24T18:56:37.308Z,47.13
2017-10-24T18:59:05.093Z,47.40
2017-10-24T19:01:32.930Z,51.60
2017-10-24T19:04:00.695Z,44.35
2017-10-24T19:06:28.457Z,53.33
2017-10-24T19:08:56.318Z,52.83
2017-10-24T19:11:24.108Z,48.30
2017-10-24T19:13:51.864Z,48.85
2017-10-24T19:16:19.803Z,48.08
2017-10-24T19:18:47.720Z,50.95
2017-10-24T19:21:15.554Z,49.10
2017-10-24T19:23:44.265Z,48.03
2017-10-24T19:26:12.046Z,50.58
2017-10-24T19:28:39.811Z,51.03
2017-10-24T19:31:08.212Z,41.15
2017-10-24T19:33:36.026Z,45.20
2017-10-24T19:36:04.563Z,56.30
2017-10-24T19:38:32.416Z,48.28
2017-10-24T19:41:00.179Z,47.62
2017-10-24T19:43:28.098Z,48.75
2017-10-24T19:45:55.941Z,49.83
2017-10-24T19:48:24.473Z,49.20
2017-10-24T19:51:07.816Z,44.60
2017-10-24T19:53:36.391Z,49.50
2017-10-24T19:56:04.151Z,44.88
2017-10-24T19:58:31.963Z,45.60
2017-10-24T20:01:00.523Z,47.75
2017-10-24T20:03:28.303Z,49.50
2017-10-24T20:05:56.160Z,49.05
2017-10-24T20:08:23.933Z,52.28
2017-10-24T20:10:52.463Z,51.88
2017-10-24T20:13:20.281Z,47.55
2017-10-24T20:15:48.812Z,45.92
2017-10-24T20:18:16.574Z,50.35
2017-10-24T20:20:44.389Z,38.20
2017-10-24T20:23:12.911Z,48.38
2017-10-24T20:25:40.669Z,46.88
2017-10-24T20:28:08.579Z,42.00
2017-10-24T20:30:37.097Z,45.88
2017-10-24T20:33:04.858Z,42.97
2017-10-24T20:35:32.687Z,50.30
2017-10-24T20:38:00.475Z,47.30
2017-10-24T20:40:28.247Z,42.30
2017-10-24T20:42:56.067Z,46.75
2017-10-24T20:45:24.666Z,46.05
2017-10-24T20:47:52.432Z,44.58
2017-10-24T20:50:20.239Z,48.38
2017-10-24T20:52:47.991Z,48.80
2017-10-24T20:55:15.875Z,46.97
2017-10-24T20:57:43.787Z,48.05
2017-10-24T21:00:11.540Z,46.67
2017-10-24T21:02:40.055Z,52.00
2017-10-24T21:05:07.942Z,49.65
2017-10-24T21:07:35.724Z,52.83
2017-10-24T21:10:04.270Z,43.80
2017-10-24T21:12:32.083Z,48.87
2017-10-24T21:15:00.594Z,43.03
2017-10-24T21:17:28.343Z,49.78
2017-10-24T21:19:56.151Z,50.85
2017-10-24T21:22:23.899Z,53.95
2017-10-24T21:24:51.652Z,52.62
2017-10-24T21:27:19.500Z,49.55
2017-10-24T21:29:47.245Z,54.67
2017-10-24T21:32:15.762Z,56.92
2017-10-24T21:34:43.581Z,52.08
2017-10-24T21:37:12.099Z,55.78
2017-10-24T21:39:39.847Z,44.58
2017-10-24T21:42:07.658Z,52.85
2017-10-24T21:44:35.426Z,60.30
2017-10-24T21:47:03.171Z,54.92
2017-10-24T21:49:30.999Z,49.05
2017-10-24T21:51:58.753Z,51.28
2017-10-24T21:54:26.506Z,47.30
2017-10-24T21:56:54.318Z,56.80
2017-10-24T21:59:22.842Z,46.70
2017-10-24T22:01:51.374Z,48.30
2017-10-24T22:04:19.178Z,58.22
2017-10-24T22:06:47.696Z,51.60
2017-10-24T22:09:15.443Z,49.97
2017-10-24T22:11:43.550Z,49.25
2017-10-24T22:14:11.299Z,51.72
2017-10-24T22:16:39.050Z,54.28
2017-10-24T22:19:06.862Z,50.97
2017-10-24T22:21:35.379Z,52.28
2017-10-24T22:24:03.128Z,49.22
2017-10-24T22:26:30.938Z,52.55
2017-10-24T22:28:58.699Z,50.25
2017-10-24T22:31:26.447Z,48.22
2017-10-24T22:33:54.263Z,47.45
2017-10-24T22:36:22.787Z,53.53
2017-10-24T22:38:50.551Z,44.78
2017-10-24T22:41:18.359Z,46.28
2017-10-24T22:43:46.870Z,49.35
2017-10-24T22:46:14.618Z,52.72
2017-10-24T22:48:42.582Z,51.45
2017-10-24T22:51:10.331Z,63.97
2017-10-24T22:53:38.859Z,55.33
2017-10-24T22:56:06.671Z,56.28
2017-10-24T22:58:35.213Z,56.15
2017-10-24T23:01:02.990Z,65.22
2017-10-24T23:03:30.810Z,56.15
2017-10-24T23:05:58.570Z,60.15
2017-10-24T23:08:26.322Z,69.35
2017-10-24T23:10:54.229Z,68.22
2017-10-24T23:13:22.748Z,60.63
2017-10-24T23:15:51.263Z,66.30
2017-10-24T23:18:19.088Z,63.75
2017-10-24T23:20:47.624Z,67.55
2017-10-24T23:23:16.140Z,68.15
2017-10-24T23:25:44.727Z,57.38
2017-10-24T23:28:13.242Z,72.25
2017-10-24T23:30:41.006Z,67.03
2017-10-24T23:33:08.894Z,63.92
2017-10-24T23:35:36.650Z,62.97
2017-10-24T23:38:04.419Z,68.85
2017-10-24T23:40:33.015Z,76.25
2017-10-24T23:43:00.767Z,65.35
2017-10-24T23:45:28.520Z,62.83
2017-10-24T23:47:56.358Z,61.80
2017-10-24T23:50:24.115Z,60.75
2017-10-24T23:52:51.912Z,63.80
2017-10-24T23:55:19.716Z,50.95
2017-10-24T23:57:48.233Z,57.90
